Time;durP1;ratioP1;P1;durP2;ratioP2;P2;SDS_P1;SDS_P2;PMS_P1;PMS_P2;Temp;Humidity;BMP_temperature;BMP_pressure;BME280_temperature;BME280_humidity;BME280_pressure;Samples;Min_cycle;Max_cycle;Signal;HPM_P1;HPM_P2
2022/10/28 00:00:33;;;;;;;40.92;27.33;;;18.20;1.00;;;;;;5054911;28;20060;-62
2022/10/28 00:03:00;;;;;;;38.47;24.88;;;18.20;1.00;;;;;;5056052;28;20069;-62
2022/10/28 00:05:27;;;;;;;42.58;27.40;;;18.20;1.00;;;;;;5056931;28;20048;-61
2022/10/28 00:07:52;;;;;;;32.17;24.67;;;18.10;1.00;;;;;;5055069;28;20025;-61
2022/10/28 00:10:18;;;;;;;35.95;25.92;;;18.10;1.00;;;;;;5060936;28;20041;-61
2022/10/28 00:12:44;;;;;;;38.25;26.98;;;18.10;1.00;;;;;;5057028;28;20080;-61
2022/10/28 00:15:09;;;;;;;41.95;28.20;;;18.10;1.00;;;;;;5054938;28;20037;-61
2022/10/28 00:17:35;;;;;;;36.90;25.73;;;18.10;1.00;;;;;;5062869;28;20094;-61
2022/10/28 00:20:01;;;;;;;36.10;26.08;;;18.10;1.00;;;;;;5051661;28;20048;-61
2022/10/28 00:22:26;;;;;;;38.40;26.15;;;18.10;1.00;;;;;;5054956;28;20031;-61
2022/10/28 00:24:52;;;;;;;35.72;25.15;;;18.10;1.00;;;;;;5054133;28;20040;-62
2022/10/28 00:27:17;;;;;;;36.60;25.85;;;18.10;1.00;;;;;;5054582;28;20128;-62
2022/10/28 00:29:43;;;;;;;40.17;26.13;;;18.00;1.00;;;;;;5053516;28;20382;-61
2022/10/28 00:32:09;;;;;;;37.38;24.88;;;18.00;1.00;;;;;;5050846;28;20115;-62
2022/10/28 00:34:34;;;;;;;32.17;23.42;;;18.00;1.00;;;;;;5051477;28;20039;-61
2022/10/28 00:37:00;;;;;;;39.50;25.17;;;18.00;1.00;;;;;;5052343;28;20102;-61
2022/10/28 00:39:26;;;;;;;32.22;23.10;;;18.00;1.00;;;;;;5054401;28;20021;-61
2022/10/28 00:41:57;;;;;;;29.17;22.85;;;18.00;1.00;;;;;;5052605;28;20025;-62
2022/10/28 00:44:42;;;;;;;38.20;24.77;;;18.00;1.00;;;;;;5053297;28;20049;-62
2022/10/28 00:47:27;;;;;;;33.67;22.13;;;18.00;1.00;;;;;;5053382;28;20032;-62
2022/10/28 00:49:55;;;;;;;;;;;18.00;1.00;;;;;;5059058;28;20497;-61
2022/10/28 00:52:25;;;;;;;36.08;22.90;;;17.90;1.00;;;;;;5053521;28;19917;-61
2022/10/28 00:54:52;;;;;;;27.77;21.73;;;17.90;1.00;;;;;;5058942;28;20078;-61
2022/10/28 00:57:23;;;;;;;31.25;21.67;;;17.90;1.00;;;;;;5045939;28;20029;-61
2022/10/28 00:59:52;;;;;;;32.17;21.33;;;17.90;1.00;;;;;;5053762;28;20021;-61
2022/10/28 01:02:18;;;;;;;30.58;21.55;;;17.90;1.00;;;;;;5049162;28;20036;-61
2022/10/28 01:04:46;;;;;;;29.70;20.45;;;17.90;1.00;;;;;;5052855;28;20028;-61
2022/10/28 01:07:12;;;;;;;26.67;19.95;;;17.90;1.00;;;;;;5055146;28;20466;-61
2022/10/28 01:09:39;;;;;;;24.30;19.30;;;17.90;1.00;;;;;;5053930;28;20033;-62
2022/10/28 01:12:07;;;;;;;27.63;18.17;;;17.90;1.00;;;;;;5048900;28;20029;-62
2022/10/28 01:15:02;;;;;;;28.63;20.42;;;17.80;1.00;;;;;;5057586;28;20025;-62
2022/10/28 01:17:50;;;;;;;25.65;17.25;;;17.80;1.00;;;;;;5055916;28;20049;-61
2022/10/28 01:20:55;;;;;;;29.52;19.13;;;17.80;1.00;;;;;;5047248;28;20025;-61
2022/10/28 01:23:33;;;;;;;27.50;18.70;;;17.80;1.00;;;;;;5055592;28;20043;-62
2022/10/28 01:26:35;;;;;;;26.02;19.38;;;17.80;1.00;;;;;;5054347;28;20560;-61
2022/10/28 01:29:08;;;;;;;25.05;18.00;;;17.80;1.00;;;;;;5051360;28;20052;-61
2022/10/28 01:32:04;;;;;;;24.67;16.65;;;17.70;1.00;;;;;;5055410;28;20032;-62
2022/10/28 01:34:32;;;;;;;23.58;17.10;;;17.70;1.00;;;;;;5049978;28;20478;-62
2022/10/28 01:37:15;;;;;;;24.58;16.15;;;17.80;1.00;;;;;;5047088;28;20032;-61
2022/10/28 01:39:48;;;;;;;24.10;16.13;;;17.70;1.00;;;;;;5053394;28;20081;-61
2022/10/28 01:42:38;;;;;;;23.55;16.27;;;17.70;1.00;;;;;;5055759;28;20037;-62
2022/10/28 01:45:21;;;;;;;22.63;16.90;;;17.70;1.00;;;;;;5055357;28;20144;-62
2022/10/28 01:47:59;;;;;;;20.85;16.85;;;17.70;1.00;;;;;;5056814;28;20039;-61
2022/10/28 01:50:36;;;;;;;23.23;17.05;;;17.60;1.00;;;;;;5052194;28;20398;-62
2022/10/28 01:53:10;;;;;;;23.05;16.10;;;17.70;1.00;;;;;;5049928;28;20028;-61
2022/10/28 01:55:40;;;;;;;23.48;16.00;;;17.60;1.00;;;;;;5058739;28;20028;-62
2022/10/28 01:58:08;;;;;;;23.42;16.10;;;17.60;1.00;;;;;;5052814;28;20017;-62
2022/10/28 02:00:35;;;;;;;24.65;16.38;;;17.60;1.00;;;;;;5052262;28;20037;-61
2022/10/28 02:03:01;;;;;;;27.70;16.40;;;17.70;1.00;;;;;;5046684;28;20546;-62
2022/10/28 02:05:40;;;;;;;28.35;17.20;;;17.60;1.00;;;;;;5052373;28;20273;-61
2022/10/28 02:08:16;;;;;;;23.50;16.98;;;17.60;1.00;;;;;;5070934;28;20031;-62
2022/10/28 02:10:50;;;;;;;23.23;16.00;;;17.60;1.00;;;;;;5057239;28;20037;-62
2022/10/28 02:13:18;;;;;;;21.80;15.63;;;17.60;1.00;;;;;;5049840;28;20025;-61
2022/10/28 02:15:54;;;;;;;23.45;15.13;;;17.60;1.00;;;;;;5060741;28;20131;-61
2022/10/28 02:18:20;;;;;;;21.98;15.75;;;17.60;1.00;;;;;;5051580;28;20029;-61
2022/10/28 02:20:58;;;;;;;24.13;15.48;;;17.60;1.00;;;;;;5056202;28;20048;-61
2022/10/28 02:23:37;;;;;;;22.40;15.18;;;17.60;1.00;;;;;;5053198;28;20079;-61
2022/10/28 02:26:15;;;;;;;21.88;15.77;;;17.60;1.00;;;;;;5053000;28;20041;-61
2022/10/28 02:28:48;;;;;;;21.55;14.18;;;17.60;1.00;;;;;;5051986;28;20051;-62
2022/10/28 02:31:29;;;;;;;23.58;14.82;;;17.50;1.00;;;;;;5050020;28;20129;-62
2022/10/28 02:34:00;;;;;;;21.13;15.00;;;17.50;1.00;;;;;;5051076;28;20029;-62
2022/10/28 02:36:29;;;;;;;20.40;15.15;;;17.50;1.00;;;;;;5052127;28;20505;-62
2022/10/28 02:38:57;;;;;;;23.42;13.88;;;17.50;1.00;;;;;;5052725;28;20100;-62
2022/10/28 02:41:29;;;;;;;21.95;14.65;;;17.50;1.00;;;;;;5056108;28;20033;-62
2022/10/28 02:43:58;;;;;;;23.75;17.23;;;17.50;1.00;;;;;;5050381;28;20099;-61
2022/10/28 02:46:27;;;;;;;21.85;16.70;;;17.50;1.00;;;;;;5049839;28;20063;-62
2022/10/28 02:48:59;;;;;;;26.55;19.33;;;17.50;1.00;;;;;;5051565;28;20052;-62
2022/10/28 02:51:47;;;;;;;27.13;19.42;;;17.50;1.00;;;;;;5050529;28;20033;-61
2022/10/28 02:54:36;;;;;;;28.85;18.83;;;17.40;1.00;;;;;;5064676;28;20029;-62
2022/10/28 02:57:07;;;;;;;24.48;17.55;;;17.40;1.00;;;;;;5045829;28;20036;-62
2022/10/28 02:59:33;;;;;;;22.65;16.27;;;17.40;1.00;;;;;;5054845;28;20021;-62
2022/10/28 03:01:58;;;;;;;19.98;14.65;;;17.40;1.00;;;;;;5058737;28;20034;-62
2022/10/28 03:04:24;;;;;;;24.13;15.40;;;17.40;1.00;;;;;;5050826;28;20120;-61
2022/10/28 03:06:50;;;;;;;22.77;15.35;;;17.40;1.00;;;;;;5053167;28;20025;-62
2022/10/28 03:09:15;;;;;;;22.45;15.45;;;17.40;1.00;;;;;;5057441;28;20074;-62
2022/10/28 03:11:41;;;;;;;21.45;14.38;;;17.40;1.00;;;;;;5061157;28;20025;-62
2022/10/28 03:14:07;;;;;;;19.90;14.65;;;17.40;1.00;;;;;;5056581;28;20029;-62
2022/10/28 03:16:32;;;;;;;18.73;15.10;;;17.40;1.00;;;;;;5054012;28;20059;-60
2022/10/28 03:18:58;;;;;;;21.63;14.45;;;17.30;1.00;;;;;;5055335;28;20039;-60
2022/10/28 03:21:23;;;;;;;22.45;14.18;;;17.30;1.00;;;;;;5057286;28;20064;-61
2022/10/28 03:23:49;;;;;;;25.20;13.82;;;17.30;1.00;;;;;;5056551;28;20056;-61
2022/10/28 03:26:15;;;;;;;18.40;14.10;;;17.30;1.00;;;;;;5056465;28;20029;-60
2022/10/28 03:28:40;;;;;;;21.02;13.30;;;17.40;1.00;;;;;;5048069;28;20044;-61
2022/10/28 03:31:06;;;;;;;16.63;12.68;;;17.30;1.00;;;;;;5060070;28;20035;-61
2022/10/28 03:33:32;;;;;;;18.95;12.68;;;17.30;1.00;;;;;;5053618;28;20127;-61
2022/10/28 03:35:57;;;;;;;19.52;13.70;;;17.30;1.00;;;;;;5056737;28;20070;-61
2022/10/28 03:38:23;;;;;;;18.27;13.15;;;17.30;1.00;;;;;;5053815;28;20037;-61
2022/10/28 03:40:49;;;;;;;17.50;13.25;;;17.30;1.00;;;;;;5051734;28;20021;-61
2022/10/28 03:43:15;;;;;;;19.90;12.75;;;17.30;1.00;;;;;;5055578;28;20079;-60
2022/10/28 03:45:41;;;;;;;20.13;13.88;;;17.30;1.00;;;;;;5053624;28;20065;-61
2022/10/28 03:48:07;;;;;;;23.50;14.30;;;17.30;1.00;;;;;;5063873;28;20106;-61
2022/10/28 03:50:32;;;;;;;24.00;14.10;;;17.30;1.00;;;;;;5056089;28;20029;-61
2022/10/28 03:52:58;;;;;;;19.10;12.55;;;17.30;1.00;;;;;;5052775;28;20487;-61
2022/10/28 03:55:24;;;;;;;20.73;13.52;;;17.30;1.00;;;;;;5055013;28;20031;-60
2022/10/28 03:57:50;;;;;;;22.33;13.05;;;17.20;1.00;;;;;;5054004;28;20017;-61
2022/10/28 04:00:16;;;;;;;20.15;13.38;;;17.20;1.00;;;;;;5056847;28;20021;-61
2022/10/28 04:02:47;;;;;;;23.27;13.23;;;17.20;1.00;;;;;;5054710;28;20029;-60
2022/10/28 04:05:14;;;;;;;20.80;13.07;;;17.20;1.00;;;;;;5054310;28;20044;-61
2022/10/28 04:07:39;;;;;;;18.55;12.55;;;17.20;1.00;;;;;;5052277;28;20111;-61
2022/10/28 04:10:05;;;;;;;22.80;13.95;;;17.20;1.00;;;;;;5051904;28;20490;-60
2022/10/28 04:12:31;;;;;;;19.15;12.75;;;17.20;1.00;;;;;;5056086;28;20025;-61
2022/10/28 04:14:56;;;;;;;17.83;12.68;;;17.20;1.00;;;;;;5053009;28;20371;-60
2022/10/28 04:17:22;;;;;;;18.65;13.43;;;17.20;1.00;;;;;;5060896;28;20051;-61
2022/10/28 04:19:48;;;;;;;20.13;13.45;;;17.20;1.00;;;;;;5052451;28;20362;-61
2022/10/28 04:22:15;;;;;;;18.05;12.02;;;17.20;1.00;;;;;;5051547;28;20041;-60
2022/10/28 04:24:41;;;;;;;16.73;12.25;;;17.10;1.00;;;;;;5053496;28;20033;-60
2022/10/28 04:27:06;;;;;;;17.27;12.07;;;17.20;1.00;;;;;;5055519;28;20024;-61
2022/10/28 04:29:32;;;;;;;19.55;12.38;;;17.20;1.00;;;;;;5053769;28;20031;-60
2022/10/28 04:31:58;;;;;;;25.63;13.85;;;17.10;1.00;;;;;;5056962;28;20508;-61
2022/10/28 04:34:24;;;;;;;19.50;12.52;;;17.10;1.00;;;;;;5050953;28;20483;-61
2022/10/28 04:36:50;;;;;;;17.00;11.65;;;17.10;1.00;;;;;;5051917;28;20087;-61
2022/10/28 04:39:16;;;;;;;19.50;12.30;;;17.10;1.00;;;;;;5056676;28;20078;-61
2022/10/28 04:41:41;;;;;;;16.17;12.05;;;17.10;1.00;;;;;;5065934;28;20025;-60
2022/10/28 04:44:07;;;;;;;18.40;12.35;;;17.10;1.00;;;;;;5058004;28;20094;-61
2022/10/28 04:46:32;;;;;;;18.58;12.25;;;17.10;1.00;;;;;;5055393;28;20068;-61
2022/10/28 04:48:58;;;;;;;20.00;13.40;;;17.10;1.00;;;;;;5057098;28;20482;-60
2022/10/28 04:51:23;;;;;;;18.52;12.43;;;17.10;1.00;;;;;;5054668;28;20035;-60
2022/10/28 04:53:49;;;;;;;17.77;12.57;;;17.10;1.00;;;;;;5057121;28;20027;-61
2022/10/28 04:56:15;;;;;;;18.67;12.52;;;17.10;1.00;;;;;;5052278;28;20033;-61
2022/10/28 04:58:40;;;;;;;21.85;12.07;;;17.10;1.00;;;;;;5052245;28;20048;-61
2022/10/28 05:01:07;;;;;;;17.33;12.27;;;17.10;1.00;;;;;;5055304;28;20068;-61
2022/10/28 05:03:34;;;;;;;18.75;13.40;;;17.00;1.00;;;;;;5046695;28;20029;-61
2022/10/28 05:05:59;;;;;;;16.13;12.02;;;17.00;1.00;;;;;;5051969;28;20410;-61
2022/10/28 05:08:25;;;;;;;18.85;13.35;;;17.00;1.00;;;;;;5054320;28;20025;-61
2022/10/28 05:10:51;;;;;;;24.08;14.30;;;17.00;1.00;;;;;;5054669;28;20033;-61
2022/10/28 05:13:17;;;;;;;21.98;13.43;;;17.00;1.00;;;;;;5049965;28;20021;-61
2022/10/28 05:15:43;;;;;;;16.67;12.18;;;17.00;1.00;;;;;;5059830;28;20048;-61
2022/10/28 05:18:09;;;;;;;19.95;13.68;;;17.00;1.00;;;;;;5054773;28;20024;-61
2022/10/28 05:20:35;;;;;;;21.85;12.82;;;17.00;1.00;;;;;;5055279;28;20056;-61
2022/10/28 05:23:00;;;;;;;18.48;13.23;;;17.10;1.00;;;;;;5042167;28;20068;-61
2022/10/28 05:25:26;;;;;;;18.70;13.23;;;17.00;1.00;;;;;;5046046;28;20493;-61
2022/10/28 05:27:52;;;;;;;15.57;12.10;;;17.00;1.00;;;;;;5052833;28;20062;-61
2022/10/28 05:30:18;;;;;;;16.08;11.88;;;17.00;1.00;;;;;;5050845;28;20041;-61
2022/10/28 05:32:44;;;;;;;20.40;12.48;;;17.10;1.00;;;;;;5051196;28;20115;-61
2022/10/28 05:35:10;;;;;;;20.55;12.57;;;17.00;1.00;;;;;;5057138;28;20058;-62
2022/10/28 05:37:36;;;;;;;21.02;11.60;;;17.00;1.00;;;;;;5056057;28;20121;-61
2022/10/28 05:40:02;;;;;;;17.73;11.95;;;17.00;1.00;;;;;;5053060;28;20056;-61
2022/10/28 05:42:28;;;;;;;20.95;11.65;;;17.00;1.00;;;;;;5054373;28;20399;-61
2022/10/28 05:44:53;;;;;;;15.25;10.90;;;17.00;1.00;;;;;;5054274;28;20052;-61
2022/10/28 05:47:19;;;;;;;16.38;10.82;;;17.00;1.00;;;;;;5046128;28;20057;-61
2022/10/28 05:49:44;;;;;;;15.15;11.32;;;17.00;1.00;;;;;;5046783;28;20029;-61
2022/10/28 05:52:10;;;;;;;16.80;11.18;;;17.00;1.00;;;;;;5048605;28;20029;-61
2022/10/28 05:54:36;;;;;;;16.83;11.07;;;17.00;1.00;;;;;;5051286;28;20502;-61
2022/10/28 05:57:01;;;;;;;19.33;10.88;;;17.00;1.00;;;;;;5051139;28;20037;-61
2022/10/28 05:59:27;;;;;;;19.92;10.57;;;17.00;1.00;;;;;;5049310;28;20033;-62
2022/10/28 06:01:52;;;;;;;14.27;10.02;;;17.00;1.00;;;;;;5050450;28;20467;-61
2022/10/28 06:04:18;;;;;;;16.73;9.57;;;17.00;1.00;;;;;;5049890;28;20102;-61
2022/10/28 06:06:44;;;;;;;19.10;10.63;;;17.00;1.00;;;;;;5049800;28;20037;-62
2022/10/28 06:09:09;;;;;;;14.88;10.02;;;17.00;1.00;;;;;;5050675;28;20121;-61
2022/10/28 06:11:35;;;;;;;15.73;9.90;;;17.00;1.00;;;;;;5048212;28;20040;-61
2022/10/28 06:14:01;;;;;;;16.25;9.95;;;17.00;1.00;;;;;;5048097;28;20029;-62
2022/10/28 06:16:26;;;;;;;16.48;10.18;;;17.00;1.00;;;;;;5048802;28;20106;-61
2022/10/28 06:18:52;;;;;;;18.08;11.00;;;17.00;1.00;;;;;;5044010;28;20026;-61
2022/10/28 06:21:17;;;;;;;14.10;9.68;;;17.00;1.00;;;;;;5053065;28;20060;-61
2022/10/28 06:23:43;;;;;;;16.23;9.30;;;17.00;1.00;;;;;;5051029;28;20086;-61
2022/10/28 06:26:08;;;;;;;22.17;10.35;;;17.00;1.00;;;;;;5043958;28;20040;-62
2022/10/28 06:28:34;;;;;;;14.23;9.05;;;16.90;1.00;;;;;;5050305;28;20488;-62
2022/10/28 06:31:08;;;;;;;16.35;9.32;;;17.00;1.00;;;;;;5050900;28;20040;-62
2022/10/28 06:33:34;;;;;;;19.60;9.90;;;17.10;1.00;;;;;;5064377;28;20035;-61
2022/10/28 06:36:00;;;;;;;17.00;10.48;;;17.00;1.00;;;;;;5052589;28;20070;-62
2022/10/28 06:38:27;;;;;;;17.83;9.80;;;17.10;1.00;;;;;;5050742;28;20125;-61
2022/10/28 06:40:53;;;;;;;13.45;8.52;;;17.00;1.00;;;;;;5049527;28;20521;-61
2022/10/28 06:43:19;;;;;;;19.30;10.40;;;17.00;1.00;;;;;;5053457;28;20265;-62
2022/10/28 06:45:47;;;;;;;23.33;10.40;;;17.10;1.00;;;;;;5048490;28;20120;-61
2022/10/28 06:48:12;;;;;;;14.82;10.73;;;17.00;1.00;;;;;;5048578;28;20570;-62
2022/10/28 06:50:38;;;;;;;17.35;10.52;;;17.10;1.00;;;;;;5049960;28;20162;-62
2022/10/28 06:53:04;;;;;;;17.67;9.23;;;17.10;1.00;;;;;;5047676;28;20092;-62
2022/10/28 06:55:30;;;;;;;17.13;10.18;;;17.10;1.00;;;;;;5049411;28;20108;-61
2022/10/28 06:58:00;;;;;;;20.02;10.93;;;17.10;1.00;;;;;;5048609;28;20517;-62
2022/10/28 07:00:27;;;;;;;18.65;11.02;;;17.10;1.00;;;;;;5051887;28;20070;-61
2022/10/28 07:02:53;;;;;;;18.02;10.20;;;17.20;1.00;;;;;;5047774;28;20037;-61
2022/10/28 07:05:19;;;;;;;24.70;11.85;;;17.10;1.00;;;;;;5046148;28;20052;-61
2022/10/28 07:07:44;;;;;;;20.90;9.05;;;17.20;1.00;;;;;;5050424;28;20031;-61
2022/10/28 07:10:10;;;;;;;22.50;11.60;;;17.20;1.00;;;;;;5047159;28;20029;-61
2022/10/28 07:12:36;;;;;;;17.40;9.82;;;17.20;1.00;;;;;;5050817;28;20331;-61
2022/10/28 07:15:02;;;;;;;17.52;8.77;;;17.20;1.00;;;;;;5043932;28;20035;-61
2022/10/28 07:17:27;;;;;;;13.88;9.65;;;17.10;1.00;;;;;;5055458;28;20156;-61
2022/10/28 07:19:53;;;;;;;17.90;9.90;;;17.20;1.00;;;;;;5047244;28;20033;-61
2022/10/28 07:22:19;;;;;;;18.17;9.90;;;17.30;1.00;;;;;;5052593;28;20053;-61
2022/10/28 07:24:44;;;;;;;20.10;9.27;;;17.30;1.00;;;;;;5049355;28;20032;-61
2022/10/28 07:27:10;;;;;;;18.48;11.45;;;17.30;1.00;;;;;;5049552;28;20037;-61
2022/10/28 07:29:35;;;;;;;17.58;10.45;;;17.30;1.00;;;;;;5045882;28;20121;-61
2022/10/28 07:32:01;;;;;;;18.52;11.02;;;17.40;1.00;;;;;;5047001;28;20029;-61
2022/10/28 07:34:27;;;;;;;26.33;11.52;;;17.40;1.00;;;;;;5048870;28;20032;-61
2022/10/28 07:36:53;;;;;;;18.10;11.07;;;17.40;1.00;;;;;;5051990;28;20039;-61
2022/10/28 07:39:20;;;;;;;20.80;12.80;;;17.40;1.00;;;;;;5045189;28;20052;-61
2022/10/28 07:41:46;;;;;;;16.35;12.52;;;17.50;1.00;;;;;;5068111;28;20036;-61
2022/10/28 07:44:12;;;;;;;17.73;11.20;;;17.50;1.00;;;;;;5049323;28;20052;-62
2022/10/28 07:46:38;;;;;;;20.15;11.55;;;17.50;1.00;;;;;;5049741;28;20443;-61
2022/10/28 07:49:04;;;;;;;20.52;12.45;;;17.60;1.00;;;;;;5045449;28;20070;-61
2022/10/28 07:51:29;;;;;;;23.33;12.70;;;17.60;1.00;;;;;;5046559;28;20029;-62
2022/10/28 07:53:56;;;;;;;23.60;12.40;;;17.60;1.00;;;;;;5049452;28;20489;-62
2022/10/28 07:56:22;;;;;;;20.08;12.73;;;17.60;1.00;;;;;;5054394;28;20108;-62
2022/10/28 07:58:48;;;;;;;23.35;14.38;;;17.70;1.00;;;;;;5053926;28;20032;-63
2022/10/28 08:01:16;;;;;;;24.40;14.95;;;17.70;1.00;;;;;;5051795;28;20032;-62
2022/10/28 08:03:42;;;;;;;24.58;15.63;;;17.80;1.00;;;;;;5050509;28;20425;-62
2022/10/28 08:06:16;;;;;;;21.23;16.17;;;17.80;1.00;;;;;;5048604;28;20040;-62
2022/10/28 08:08:43;;;;;;;;;;;17.80;1.00;;;;;;5053619;28;20047;-62
2022/10/28 08:11:18;;;;;;;27.00;16.95;;;17.80;1.00;;;;;;5054435;28;19909;-62
2022/10/28 08:13:43;;;;;;;27.10;17.00;;;17.80;1.00;;;;;;5050355;28;20021;-62
2022/10/28 08:16:09;;;;;;;27.27;16.98;;;17.90;1.00;;;;;;5049484;28;20049;-61
2022/10/28 08:18:36;;;;;;;27.85;18.27;;;17.90;1.00;;;;;;5053072;28;20134;-62
2022/10/28 08:21:03;;;;;;;30.40;18.25;;;17.90;1.00;;;;;;5050115;28;20455;-61
2022/10/28 08:23:29;;;;;;;30.60;18.70;;;18.00;1.00;;;;;;5051886;28;20112;-61
2022/10/28 08:25:55;;;;;;;32.58;19.60;;;18.00;1.00;;;;;;5050411;28;20447;-61
2022/10/28 08:28:21;;;;;;;32.05;20.88;;;18.00;1.00;;;;;;5050644;28;20024;-61
2022/10/28 08:30:46;;;;;;;30.98;19.77;;;18.10;1.00;;;;;;5049191;28;20445;-61
2022/10/28 08:33:13;;;;;;;36.83;20.73;;;18.10;1.00;;;;;;5053877;28;20036;-61
2022/10/28 08:35:38;;;;;;;30.08;19.58;;;18.10;1.00;;;;;;5050906;28;20071;-61
2022/10/28 08:38:05;;;;;;;32.95;19.17;;;18.10;1.00;;;;;;5059233;28;20025;-61
2022/10/28 08:40:53;;;;;;;32.42;21.27;;;18.10;1.00;;;;;;5048754;28;20405;-61
2022/10/28 08:43:55;;;;;;;39.55;20.85;;;18.10;1.00;;;;;;5050947;28;20487;-61
2022/10/28 08:46:43;;;;;;;33.70;20.45;;;18.20;1.00;;;;;;5048778;28;20112;-61
2022/10/28 08:49:13;;;;;;;39.85;20.92;;;18.20;1.00;;;;;;5051049;28;20021;-61
2022/10/28 08:52:00;;;;;;;37.53;21.58;;;18.20;1.00;;;;;;5051860;28;20078;-61
2022/10/28 08:54:46;;;;;;;33.92;20.90;;;18.20;1.00;;;;;;5063437;28;20090;-61
2022/10/28 08:57:19;;;;;;;31.85;21.25;;;18.20;1.00;;;;;;5050503;28;20025;-61
2022/10/28 08:59:46;;;;;;;34.10;20.65;;;18.20;1.00;;;;;;5048846;28;20478;-61
2022/10/28 09:02:22;;;;;;;30.35;20.90;;;18.30;1.00;;;;;;5054468;28;20482;-61
2022/10/28 09:05:10;;;;;;;35.58;20.55;;;18.30;1.00;;;;;;5048070;28;20112;-61
2022/10/28 09:07:36;;;;;;;36.70;20.75;;;18.30;1.00;;;;;;5040929;28;20122;-61
2022/10/28 09:10:04;;;;;;;30.80;21.25;;;18.40;1.00;;;;;;5055538;28;20513;-61
2022/10/28 09:12:35;;;;;;;34.05;22.05;;;18.40;1.00;;;;;;5049535;28;20390;-61
2022/10/28 09:15:13;;;;;;;36.85;20.85;;;18.40;1.00;;;;;;5050973;28;20043;-61
2022/10/28 09:17:50;;;;;;;37.17;20.90;;;18.40;1.00;;;;;;5052647;28;20059;-61
2022/10/28 09:20:40;;;;;;;30.58;19.58;;;18.50;1.00;;;;;;5049984;28;20416;-61
2022/10/28 09:23:21;;;;;;;34.92;21.42;;;18.60;1.00;;;;;;5052663;28;20069;-61
2022/10/28 09:26:28;;;;;;;30.25;21.20;;;18.50;1.00;;;;;;5046884;28;20087;-61
2022/10/28 09:29:20;;;;;;;31.75;20.98;;;18.60;1.00;;;;;;5047601;28;20075;-61
2022/10/28 09:31:53;;;;;;;32.78;22.95;;;18.60;1.00;;;;;;5052548;28;20029;-61
2022/10/28 09:34:51;;;;;;;30.88;20.40;;;18.60;1.00;;;;;;5051456;28;20028;-61
2022/10/28 09:37:23;;;;;;;31.52;19.88;;;18.70;1.00;;;;;;5048320;28;20028;-61
2022/10/28 09:40:00;;;;;;;35.13;21.60;;;18.70;1.00;;;;;;5057922;28;20056;-61
2022/10/28 09:42:39;;;;;;;30.95;21.38;;;18.70;1.00;;;;;;5057016;28;20482;-61
2022/10/28 09:45:15;;;;;;;34.78;21.95;;;18.80;1.00;;;;;;5048985;28;20032;-61
2022/10/28 09:47:44;;;;;;;32.70;21.60;;;18.80;1.00;;;;;;5051680;28;20032;-61
2022/10/28 09:50:19;;;;;;;33.78;21.92;;;18.90;1.00;;;;;;5050191;28;20043;-61
2022/10/28 09:53:22;;;;;;;27.80;21.55;;;19.00;1.00;;;;;;5052478;28;20035;-61
2022/10/28 09:56:13;;;;;;;32.80;22.23;;;19.00;1.00;;;;;;5027099;28;20502;-61
2022/10/28 09:58:45;;;;;;;39.42;23.98;;;19.10;1.00;;;;;;5053871;28;20028;-61
2022/10/28 10:01:11;;;;;;;35.22;23.70;;;19.10;1.00;;;;;;5050634;28;20056;-61
2022/10/28 10:03:38;;;;;;;39.63;24.83;;;19.20;1.00;;;;;;5050225;28;20056;-61
2022/10/28 10:06:22;;;;;;;42.17;25.10;;;19.30;1.00;;;;;;5049110;28;20442;-61
2022/10/28 10:08:48;;;;;;;34.85;24.25;;;19.30;1.00;;;;;;5051770;28;20029;-61
2022/10/28 10:11:35;;;;;;;38.70;24.27;;;19.40;1.00;;;;;;5048471;28;20021;-61
2022/10/28 10:14:06;;;;;;;37.72;24.95;;;19.50;1.00;;;;;;5048430;28;20028;-61
2022/10/28 10:16:55;;;;;;;34.72;23.38;;;19.60;1.00;;;;;;5043757;28;20049;-61
2022/10/28 10:19:21;;;;;;;34.05;24.15;;;19.70;1.00;;;;;;5065831;28;20327;-61
2022/10/28 10:21:48;;;;;;;36.38;24.05;;;19.80;1.00;;;;;;5049345;28;20075;-61
2022/10/28 10:24:31;;;;;;;35.25;23.70;;;19.80;1.00;;;;;;5048736;28;20032;-61
2022/10/28 10:27:11;;;;;;;36.13;24.17;;;19.90;1.00;;;;;;5047649;28;20064;-61
2022/10/28 10:29:42;;;;;;;36.45;23.55;;;20.00;1.00;;;;;;5050314;28;20108;-61
2022/10/28 10:32:14;;;;;;;37.97;23.23;;;20.00;1.00;;;;;;5047122;28;20025;-61
2022/10/28 10:35:23;;;;;;;33.10;23.83;;;20.10;1.00;;;;;;5049611;28;20078;-61
2022/10/28 10:37:51;;;;;;;35.72;22.83;;;20.20;1.00;;;;;;5051857;28;20041;-61
2022/10/28 10:40:30;;;;;;;37.42;24.02;;;20.20;1.00;;;;;;5049724;28;20118;-61
2022/10/28 10:43:15;;;;;;;38.38;23.73;;;20.30;1.00;;;;;;5051810;28;20459;-61
2022/10/28 10:46:11;;;;;;;33.95;23.33;;;20.30;1.00;;;;;;5048724;28;20056;-61
2022/10/28 10:48:37;;;;;;;37.17;23.65;;;20.30;1.00;;;;;;5042952;28;20029;-61
2022/10/28 10:51:23;;;;;;;32.17;23.15;;;20.40;1.00;;;;;;5049537;28;20120;-61
2022/10/28 10:53:53;;;;;;;36.50;23.88;;;20.50;1.00;;;;;;5048623;28;20570;-61
2022/10/28 10:56:28;;;;;;;33.10;22.60;;;20.50;1.00;;;;;;5047284;28;20087;-61
2022/10/28 10:58:57;;;;;;;31.55;23.58;;;20.60;1.00;;;;;;5049167;28;20060;-61
2022/10/28 11:01:25;;;;;;;39.95;23.92;;;20.70;1.00;;;;;;5045047;28;20021;-61
2022/10/28 11:04:01;;;;;;;33.97;23.15;;;20.70;1.00;;;;;;5051172;28;20029;-61
2022/10/28 11:06:31;;;;;;;34.00;23.67;;;20.70;1.00;;;;;;5066615;28;20036;-61
2022/10/28 11:09:17;;;;;;;33.22;23.20;;;20.80;1.00;;;;;;5049264;28;20075;-61
2022/10/28 11:11:43;;;;;;;36.28;22.88;;;20.80;1.00;;;;;;5047909;28;20033;-61
2022/10/28 11:14:09;;;;;;;35.03;23.35;;;20.80;1.00;;;;;;5048576;28;20027;-61
2022/10/28 11:16:57;;;;;;;31.35;22.35;;;20.90;1.00;;;;;;5045289;28;20049;-61
2022/10/28 11:19:23;;;;;;;32.78;22.83;;;20.90;1.00;;;;;;5049243;28;20043;-61
2022/10/28 11:21:58;;;;;;;35.90;22.90;;;20.90;1.00;;;;;;5046626;28;20707;-61
2022/10/28 11:24:34;;;;;;;36.22;25.70;;;20.90;1.00;;;;;;5049121;28;20387;-61
2022/10/28 11:27:24;;;;;;;34.10;23.80;;;20.90;1.00;;;;;;5052438;28;20064;-61
2022/10/28 11:29:50;;;;;;;34.70;23.48;;;21.00;1.00;;;;;;5053939;28;20029;-61
2022/10/28 11:32:29;;;;;;;38.70;23.17;;;21.00;1.00;;;;;;5051648;28;20029;-61
2022/10/28 11:35:14;;;;;;;31.95;22.35;;;21.10;1.00;;;;;;5048834;28;20467;-61
2022/10/28 11:37:58;;;;;;;38.92;24.35;;;21.10;1.00;;;;;;5050734;28;20394;-61
2022/10/28 11:40:26;;;;;;;33.67;23.50;;;21.20;1.00;;;;;;5051324;28;20025;-61
2022/10/28 11:43:19;;;;;;;36.80;24.35;;;21.20;1.00;;;;;;5053130;28;20032;-61
2022/10/28 11:46:06;;;;;;;35.42;24.65;;;21.20;1.00;;;;;;5052254;28;20083;-61
2022/10/28 11:48:43;;;;;;;38.30;24.80;;;21.20;1.00;;;;;;5054123;28;20051;-60
2022/10/28 11:51:15;;;;;;;35.55;24.00;;;21.30;1.00;;;;;;5049220;28;20029;-61
2022/10/28 11:53:56;;;;;;;36.28;23.58;;;21.30;1.00;;;;;;5051684;28;20039;-61
2022/10/28 11:56:33;;;;;;;37.85;24.10;;;21.20;1.00;;;;;;5052617;28;20135;-61
2022/10/28 11:59:25;;;;;;;36.75;24.33;;;21.20;1.00;;;;;;5054740;28;20036;-61
2022/10/28 12:01:56;;;;;;;33.00;23.27;;;21.30;1.00;;;;;;5045915;28;20044;-61
2022/10/28 12:04:34;;;;;;;33.88;23.27;;;21.20;1.00;;;;;;5058144;28;20071;-61
2022/10/28 12:07:33;;;;;;;35.83;23.98;;;21.30;1.00;;;;;;5052920;28;20065;-61
2022/10/28 12:10:29;;;;;;;42.78;25.05;;;21.20;1.00;;;;;;5055409;28;20025;-61
2022/10/28 12:12:54;;;;;;;32.90;23.42;;;21.20;1.00;;;;;;5052197;28;20033;-61
2022/10/28 12:15:39;;;;;;;34.03;24.08;;;21.10;1.00;;;;;;5051570;28;20151;-60
2022/10/28 12:18:11;;;;;;;;;;;21.10;1.00;;;;;;5053730;28;20109;-61
2022/10/28 12:20:46;;;;;;;29.83;22.40;;;21.10;1.00;;;;;;5050460;28;20019;-61
2022/10/28 12:23:16;;;;;;;35.92;23.25;;;21.10;1.00;;;;;;5052176;28;20087;-61
2022/10/28 12:25:46;;;;;;;31.35;20.77;;;21.10;1.00;;;;;;5052297;28;20048;-61
2022/10/28 12:28:29;;;;;;;31.30;20.98;;;21.00;1.00;;;;;;5047726;28;20482;-59
2022/10/28 12:30:57;;;;;;;33.58;22.73;;;21.20;1.00;;;;;;5066315;28;20120;-60
2022/10/28 12:33:38;;;;;;;33.15;22.35;;;21.30;1.00;;;;;;5050670;28;20451;-59
2022/10/28 12:36:03;;;;;;;30.98;21.45;;;21.30;1.00;;;;;;5044431;28;20022;-60
2022/10/28 12:38:33;;;;;;;27.45;20.88;;;21.30;1.00;;;;;;5051511;28;20103;-60
2022/10/28 12:41:22;;;;;;;30.85;20.38;;;21.40;1.00;;;;;;5050912;28;20098;-61
2022/10/28 12:43:59;;;;;;;30.17;20.85;;;21.50;1.00;;;;;;5050625;28;20045;-61
2022/10/28 12:46:36;;;;;;;31.02;20.90;;;21.50;1.00;;;;;;5047238;28;20033;-59
2022/10/28 12:49:15;;;;;;;31.67;20.80;;;21.70;1.00;;;;;;5049369;28;20025;-61
2022/10/28 12:51:41;;;;;;;29.65;19.98;;;21.80;1.00;;;;;;5048769;28;20021;-61
2022/10/28 12:54:51;;;;;;;27.30;18.13;;;22.00;1.00;;;;;;5052602;28;20025;-59
2022/10/28 12:57:21;;;;;;;21.65;17.50;;;22.10;1.00;;;;;;5047463;28;20091;-60
2022/10/28 13:00:16;;;;;;;26.30;17.83;;;22.10;1.00;;;;;;5050373;28;20021;-57